Terminal Aerodrome Forecast
Issued by NWS Charleston, SC

Home | Current Version | Previous Version | Text Only | Print | Product List | Glossary On
Versions: 1 2 3 4 5 6 7 8 9 10 11 12 13 14 15 16 17 18 19 20
064
FTUS42 KCHS 070527
TAFCHS
TAF
KCHS 070527Z 0706/0806 02015G20KT 6SM RA SCT015 OVC035
     FM070800 01016G24KT 5SM RA BR SCT010 OVC015
     FM071300 36020G28KT 4SM RA BR OVC008
     FM071700 34020G30KT 6SM -RA SCT008 OVC015
     FM072000 33015G25KT P6SM SCT015 OVC250
     FM072300 32012G18KT P6SM SKC=

USA.gov is the U.S. government's official web portal to all federal, state and local government web resources and services.